createdAt,value
2023-05-12T00:02:23.456Z,2.10
2023-05-12T00:04:54.812Z,1.90
2023-05-12T00:07:25.871Z,2.30
2023-05-12T00:09:57.117Z,2.10
2023-05-12T00:12:28.529Z,1.80
2023-05-12T00:14:59.493Z,2.60
2023-05-12T00:17:30.543Z,1.80
2023-05-12T00:20:01.607Z,2.20
2023-05-12T00:22:34.261Z,2.20
2023-05-12T00:25:06.038Z,2.30
2023-05-12T00:27:37.014Z,2.20
2023-05-12T00:30:10.528Z,2.00
2023-05-12T00:32:41.592Z,2.00
2023-05-12T00:35:13.227Z,1.80
2023-05-12T00:37:44.290Z,2.20
2023-05-12T00:40:16.181Z,2.40
2023-05-12T00:42:47.303Z,1.90
2023-05-12T00:45:18.265Z,2.10
2023-05-12T00:47:50.664Z,2.30
2023-05-12T00:50:22.336Z,2.20
2023-05-12T00:52:53.847Z,2.10
2023-05-12T00:55:25.324Z,2.00
2023-05-12T00:57:56.619Z,2.00
2023-05-12T01:00:27.704Z,1.80
2023-05-12T01:02:59.609Z,2.00
2023-05-12T01:05:37.015Z,1.80
2023-05-12T01:08:09.495Z,2.20
2023-05-12T01:10:46.357Z,2.10
2023-05-12T01:13:17.476Z,2.00
2023-05-12T01:15:50.618Z,2.10
2023-05-12T01:18:23.047Z,1.70
2023-05-12T01:20:54.885Z,2.50
2023-05-12T01:23:35.812Z,1.70
2023-05-12T01:26:09.896Z,1.80
2023-05-12T01:28:42.402Z,1.90
2023-05-12T01:31:13.629Z,1.90
2023-05-12T01:33:45.410Z,2.30
2023-05-12T01:36:16.893Z,2.10
2023-05-12T01:38:47.933Z,2.00
2023-05-12T01:41:18.916Z,2.80
2023-05-12T01:43:50.077Z,2.40
2023-05-12T01:46:21.141Z,2.20
2023-05-12T01:48:52.119Z,2.20
2023-05-12T01:51:23.133Z,2.50
2023-05-12T01:53:54.129Z,1.80
2023-05-12T01:58:54.282Z,2.50
2023-05-12T02:01:28.845Z,2.20
2023-05-12T02:04:00.630Z,2.00
2023-05-12T02:06:32.650Z,2.00
2023-05-12T02:09:03.995Z,2.20
2023-05-12T02:11:34.937Z,2.00
2023-05-12T02:14:06.675Z,2.30
2023-05-12T02:16:37.772Z,2.10
2023-05-12T02:19:09.766Z,2.30
2023-05-12T02:21:41.042Z,2.30
2023-05-12T02:24:14.212Z,2.10
2023-05-12T02:26:46.044Z,1.90
2023-05-12T02:29:17.050Z,2.00
2023-05-12T02:31:48.290Z,2.40
2023-05-12T02:34:19.263Z,1.90
2023-05-12T02:36:50.559Z,2.20
2023-05-12T02:39:21.990Z,2.40
2023-05-12T02:41:52.936Z,2.10
2023-05-12T02:44:24.004Z,2.40
2023-05-12T02:46:55.054Z,2.50
2023-05-12T02:49:26.048Z,1.90
2023-05-12T02:51:57.327Z,2.00
2023-05-12T02:54:28.378Z,2.10
2023-05-12T02:57:00.042Z,1.90
2023-05-12T02:59:31.195Z,2.50
2023-05-12T03:02:02.171Z,2.30
2023-05-12T03:04:33.666Z,2.30
2023-05-12T03:07:04.772Z,2.10
2023-05-12T03:09:35.686Z,1.80
2023-05-12T03:12:08.658Z,2.80
2023-05-12T03:14:39.640Z,2.10
2023-05-12T03:19:40.170Z,2.10
2023-05-12T03:22:12.388Z,2.20
2023-05-12T03:24:43.637Z,2.30
2023-05-12T03:27:14.976Z,2.60
2023-05-12T03:29:46.252Z,3.00
2023-05-12T03:32:17.575Z,2.60
2023-05-12T03:34:48.643Z,2.70
2023-05-12T03:42:19.312Z,2.50
2023-05-12T03:44:50.304Z,2.10
2023-05-12T03:47:21.714Z,2.20
2023-05-12T03:49:52.877Z,2.20
2023-05-12T03:52:23.697Z,3.10
2023-05-12T03:54:55.208Z,3.20
2023-05-12T03:57:26.165Z,2.80
2023-05-12T03:59:57.920Z,2.90
2023-05-12T04:02:29.028Z,2.70
2023-05-12T04:05:00.405Z,2.70
2023-05-12T04:07:31.508Z,2.30
2023-05-12T04:10:02.918Z,2.30
2023-05-12T04:12:34.511Z,2.80
2023-05-12T04:15:06.526Z,2.90
2023-05-12T04:17:37.822Z,3.00
2023-05-12T04:20:10.779Z,3.30
2023-05-12T04:22:41.770Z,3.30
2023-05-12T04:27:42.551Z,3.30
2023-05-12T04:30:14.492Z,2.70
2023-05-12T04:32:45.469Z,2.80
2023-05-12T04:35:16.746Z,2.70
2023-05-12T04:37:47.653Z,2.80
2023-05-12T04:40:19.241Z,2.40
2023-05-12T04:42:50.611Z,3.10
2023-05-12T04:45:22.102Z,3.40
2023-05-12T04:47:53.041Z,2.40
2023-05-12T04:50:24.368Z,3.00
2023-05-12T04:52:55.532Z,2.70
2023-05-12T04:55:27.116Z,2.90
2023-05-12T04:57:58.226Z,2.70
2023-05-12T05:00:29.558Z,2.70
2023-05-12T05:03:00.668Z,3.40
2023-05-12T05:05:32.041Z,2.70
2023-05-12T05:08:03.331Z,2.50
2023-05-12T05:10:34.309Z,2.80
2023-05-12T05:13:05.311Z,2.90
2023-05-12T05:15:36.303Z,3.80
2023-05-12T05:18:07.757Z,2.70
2023-05-12T05:20:40.964Z,3.90
2023-05-12T05:23:14.727Z,3.20
2023-05-12T05:25:45.933Z,3.10
2023-05-12T05:28:17.030Z,2.70
2023-05-12T05:30:48.142Z,3.40
2023-05-12T05:33:19.153Z,2.60
2023-05-12T05:35:50.930Z,2.40
2023-05-12T05:38:21.834Z,2.70
2023-05-12T05:40:54.554Z,2.40
2023-05-12T05:43:25.954Z,2.60
2023-05-12T05:45:58.280Z,2.90
2023-05-12T05:48:29.567Z,2.50
2023-05-12T05:51:00.582Z,2.60
2023-05-12T05:53:31.596Z,2.30
2023-05-12T05:56:02.595Z,2.10
2023-05-12T05:58:33.537Z,2.70
2023-05-12T06:01:05.227Z,1.90
2023-05-12T06:03:36.276Z,2.40
2023-05-12T06:06:08.488Z,2.30
2023-05-12T06:08:39.389Z,2.30
2023-05-12T06:11:10.461Z,2.60
2023-05-12T06:13:41.451Z,2.20
2023-05-12T06:16:12.563Z,2.60
2023-05-12T06:18:43.611Z,2.60
2023-05-12T06:21:14.558Z,2.00
2023-05-12T06:23:45.590Z,2.10
2023-05-12T06:26:17.125Z,2.80
2023-05-12T06:28:48.513Z,2.70
2023-05-12T06:31:19.629Z,2.40
2023-05-12T06:33:50.827Z,2.30
2023-05-12T06:36:22.743Z,2.70
2023-05-12T06:38:54.018Z,5.10
2023-05-12T06:41:25.400Z,3.60
2023-05-12T06:43:56.501Z,2.10
2023-05-12T06:46:27.622Z,2.20
2023-05-12T06:49:00.312Z,2.40
2023-05-12T06:51:31.496Z,2.50
2023-05-12T06:54:02.417Z,2.30
2023-05-12T06:56:33.463Z,2.20
2023-05-12T06:59:04.800Z,2.00
2023-05-12T07:01:36.031Z,2.20
2023-05-12T07:04:07.981Z,1.90
2023-05-12T07:06:38.957Z,2.20
2023-05-12T07:09:10.101Z,2.30
2023-05-12T07:11:41.320Z,2.30
2023-05-12T07:14:12.462Z,2.60
2023-05-12T07:16:43.650Z,2.00
2023-05-12T07:19:14.661Z,2.10
2023-05-12T07:21:46.060Z,2.20
2023-05-12T07:24:17.709Z,2.50
2023-05-12T07:26:48.900Z,2.20
2023-05-12T07:29:19.827Z,2.40
2023-05-12T07:31:50.936Z,1.80
2023-05-12T07:34:22.321Z,1.90
2023-05-12T07:36:53.488Z,2.10
2023-05-12T07:39:25.096Z,2.70
2023-05-12T07:41:56.308Z,2.60
2023-05-12T07:44:27.699Z,2.10
2023-05-12T07:46:58.796Z,3.00
2023-05-12T07:49:29.973Z,2.80
2023-05-12T07:52:01.153Z,2.60
2023-05-12T07:54:32.550Z,2.00
2023-05-12T07:57:03.550Z,2.00
2023-05-12T07:59:34.990Z,1.90
2023-05-12T08:02:06.644Z,2.50
2023-05-12T08:04:37.806Z,2.60
2023-05-12T08:07:08.973Z,2.20
2023-05-12T08:09:39.946Z,2.10
2023-05-12T08:12:11.465Z,2.60
2023-05-12T08:14:42.420Z,2.40
2023-05-12T08:17:13.609Z,2.20
2023-05-12T08:19:45.019Z,2.10
2023-05-12T08:22:16.427Z,1.90
2023-05-12T08:24:48.280Z,2.40
2023-05-12T08:27:19.321Z,2.20
2023-05-12T08:29:50.352Z,2.10
2023-05-12T08:32:21.454Z,2.10
2023-05-12T08:34:52.498Z,2.00
2023-05-12T08:37:23.695Z,2.00
2023-05-12T08:39:54.952Z,1.70
2023-05-12T08:42:43.583Z,1.40
2023-05-12T08:45:15.705Z,1.40
2023-05-12T08:47:47.410Z,1.60
2023-05-12T08:50:22.624Z,1.40
2023-05-12T08:52:54.425Z,1.60
2023-05-12T08:55:31.839Z,1.50
2023-05-12T08:58:06.735Z,2.00
2023-05-12T09:00:40.224Z,1.60
2023-05-12T09:03:13.967Z,1.70
2023-05-12T09:05:46.446Z,1.80
2023-05-12T09:08:18.228Z,1.60
2023-05-12T09:10:50.599Z,1.40
2023-05-12T09:13:25.212Z,1.50
2023-05-12T09:15:58.990Z,1.40
2023-05-12T09:18:44.014Z,1.40
2023-05-12T09:21:15.503Z,1.50
2023-05-12T09:23:57.222Z,1.50
2023-05-12T09:26:29.763Z,1.50
2023-05-12T09:29:08.889Z,1.40
2023-05-12T09:31:40.536Z,1.40
2023-05-12T09:34:12.266Z,1.50
2023-05-12T09:36:43.373Z,1.50
2023-05-12T09:39:14.609Z,1.40
2023-05-12T09:41:45.811Z,1.50
2023-05-12T09:44:18.244Z,1.30
2023-05-12T09:46:49.997Z,1.40
2023-05-12T09:49:26.033Z,1.70
2023-05-12T09:51:59.039Z,1.60
2023-05-12T09:54:32.152Z,1.40
2023-05-12T09:57:07.192Z,1.50
2023-05-12T09:59:40.997Z,1.70
2023-05-12T10:02:16.909Z,1.40
2023-05-12T10:04:51.543Z,1.50
2023-05-12T10:07:27.601Z,1.30
2023-05-12T10:10:01.047Z,1.70
2023-05-12T10:12:32.281Z,1.40
2023-05-12T10:15:03.953Z,1.70
2023-05-12T10:17:36.373Z,1.40
2023-05-12T10:20:09.994Z,1.50
2023-05-12T10:22:43.406Z,1.30
2023-05-12T10:25:15.148Z,1.70
2023-05-12T10:27:47.909Z,1.70
2023-05-12T10:30:19.604Z,1.40
2023-05-12T10:32:51.064Z,1.50
2023-05-12T10:35:32.522Z,1.50
2023-05-12T10:38:08.681Z,1.70
2023-05-12T10:40:50.584Z,1.80
2023-05-12T10:43:24.967Z,1.80
2023-05-12T10:46:16.918Z,1.20
2023-05-12T10:48:57.136Z,1.50
2023-05-12T10:51:29.901Z,1.30
2023-05-12T10:54:02.267Z,1.80
2023-05-12T10:56:45.473Z,1.20
2023-05-12T10:59:19.223Z,1.40
2023-05-12T11:02:06.616Z,1.30
2023-05-12T11:04:44.468Z,1.20
2023-05-12T11:07:18.765Z,1.50
2023-05-12T11:09:58.607Z,1.10
2023-05-12T11:12:33.762Z,1.70
2023-05-12T11:15:06.512Z,1.40
2023-05-12T11:17:41.692Z,1.50
2023-05-12T11:20:30.929Z,1.50
2023-05-12T11:23:04.308Z,1.60
2023-05-12T11:25:35.541Z,1.50
2023-05-12T11:28:12.151Z,1.40
2023-05-12T11:33:23.257Z,1.50
2023-05-12T11:35:54.417Z,1.40
2023-05-12T11:38:27.455Z,1.40
2023-05-12T11:40:58.423Z,1.40
2023-05-12T11:43:31.114Z,1.40
2023-05-12T11:46:02.270Z,1.40
2023-05-12T11:48:59.453Z,1.30
2023-05-12T11:51:30.947Z,1.60
2023-05-12T11:54:01.965Z,1.40
2023-05-12T11:56:33.014Z,1.50
2023-05-12T11:59:04.611Z,1.50
2023-05-12T12:01:46.362Z,1.50
2023-05-12T12:04:18.110Z,1.70
2023-05-12T12:06:49.063Z,1.70
2023-05-12T12:09:20.116Z,1.40
2023-05-12T12:11:51.165Z,1.40
2023-05-12T12:14:22.567Z,1.60
2023-05-12T12:16:53.725Z,1.20
2023-05-12T12:19:24.941Z,1.60
2023-05-12T12:21:56.194Z,1.80
2023-05-12T12:24:27.587Z,1.70
2023-05-12T12:26:58.647Z,2.10
2023-05-12T12:29:30.239Z,2.30
2023-05-12T12:32:01.343Z,1.80
2023-05-12T12:34:32.943Z,1.90
2023-05-12T12:37:06.827Z,1.90
2023-05-12T12:39:38.138Z,1.60
2023-05-12T12:42:09.561Z,1.60
2023-05-12T12:44:40.490Z,1.80
2023-05-12T12:47:11.545Z,1.70
2023-05-12T12:49:42.549Z,1.90
2023-05-12T12:52:13.656Z,1.90
2023-05-12T12:54:44.650Z,1.80
2023-05-12T12:57:15.550Z,2.10
2023-05-12T12:59:46.673Z,1.70
2023-05-12T13:02:17.743Z,2.00
2023-05-12T13:04:48.756Z,1.60
2023-05-12T13:07:19.790Z,2.20
2023-05-12T13:09:50.844Z,1.60
2023-05-12T13:12:22.238Z,1.80
2023-05-12T13:14:53.324Z,1.80
2023-05-12T13:17:24.855Z,1.60
2023-05-12T13:19:56.138Z,1.70
2023-05-12T13:22:27.620Z,1.80
2023-05-12T13:24:59.017Z,1.90
2023-05-12T13:27:30.207Z,1.60
2023-05-12T13:30:01.394Z,1.50
2023-05-12T13:32:34.040Z,1.70
2023-05-12T13:35:05.406Z,1.70
2023-05-12T13:37:37.510Z,1.70
2023-05-12T13:40:10.733Z,2.10
2023-05-12T13:42:41.604Z,1.90
2023-05-12T13:45:14.042Z,1.60
2023-05-12T13:47:45.064Z,1.80
2023-05-12T13:50:16.367Z,2.00
2023-05-12T13:52:48.425Z,1.80
2023-05-12T13:55:21.701Z,1.70
2023-05-12T13:57:52.984Z,1.80
2023-05-12T14:00:27.225Z,1.80
2023-05-12T14:02:58.815Z,1.60
2023-05-12T14:05:29.840Z,1.90
2023-05-12T14:08:01.018Z,2.10
2023-05-12T14:10:35.393Z,2.70
2023-05-12T14:13:08.537Z,2.80
2023-05-12T14:15:48.520Z,2.40
2023-05-12T14:18:21.036Z,2.50
2023-05-12T14:20:52.521Z,2.60
2023-05-12T14:23:23.546Z,4.00
2023-05-12T14:25:55.593Z,4.80
2023-05-12T14:28:27.096Z,2.90
2023-05-12T14:30:58.189Z,3.70
2023-05-12T14:33:29.386Z,3.60
2023-05-12T14:36:07.135Z,3.60
2023-05-12T14:38:38.665Z,3.00
2023-05-12T14:41:09.948Z,2.80
2023-05-12T14:43:41.112Z,3.00
2023-05-12T14:46:12.139Z,3.20
2023-05-12T14:48:43.226Z,3.40
2023-05-12T14:51:14.245Z,3.10
2023-05-12T14:53:45.333Z,3.20
2023-05-12T14:56:16.303Z,2.60
2023-05-12T14:58:47.593Z,2.60
2023-05-12T15:01:18.566Z,3.00
2023-05-12T15:03:49.943Z,3.90
2023-05-12T15:06:20.863Z,2.80
2023-05-12T15:08:52.208Z,2.90
2023-05-12T15:11:23.182Z,2.70
2023-05-12T15:13:54.670Z,2.30
2023-05-12T15:16:28.218Z,2.10
2023-05-12T15:18:59.290Z,1.50
2023-05-12T15:21:30.917Z,1.70
2023-05-12T15:24:02.196Z,1.70
2023-05-12T15:26:34.725Z,1.80
2023-05-12T15:29:07.412Z,2.10
2023-05-12T15:31:38.727Z,2.00
2023-05-12T15:34:10.110Z,1.60
2023-05-12T15:36:41.269Z,2.00
2023-05-12T15:39:12.124Z,2.00
2023-05-12T15:41:43.137Z,2.00
2023-05-12T15:44:14.024Z,1.80
2023-05-12T15:46:45.209Z,4.20
2023-05-12T15:49:16.395Z,3.20
2023-05-12T15:51:47.309Z,3.20
2023-05-12T15:54:18.543Z,2.20
2023-05-12T15:56:50.721Z,2.70
2023-05-12T15:59:23.354Z,3.50
2023-05-12T16:01:55.427Z,2.00
2023-05-12T16:04:29.741Z,1.90
2023-05-12T16:07:01.070Z,2.10
2023-05-12T16:09:32.557Z,1.80
2023-05-12T16:12:03.802Z,3.40
2023-05-12T16:14:35.469Z,2.50
2023-05-12T16:17:07.978Z,2.80
2023-05-12T16:19:39.329Z,2.30
2023-05-12T16:22:11.635Z,1.40
2023-05-12T16:24:43.033Z,1.90
2023-05-12T16:27:15.314Z,2.00
2023-05-12T16:29:49.811Z,1.60
2023-05-12T16:32:23.470Z,2.00
2023-05-12T16:34:54.567Z,2.10
2023-05-12T16:37:26.680Z,2.00
2023-05-12T16:39:58.263Z,1.80
2023-05-12T16:42:29.405Z,1.80
2023-05-12T16:45:00.374Z,1.70
2023-05-12T16:47:34.880Z,1.70
2023-05-12T16:50:06.562Z,1.90
2023-05-12T16:52:47.970Z,1.80
2023-05-12T16:55:19.520Z,1.80
2023-05-12T16:57:51.116Z,1.90
2023-05-12T17:00:22.914Z,1.90
2023-05-12T17:02:54.167Z,1.90
2023-05-12T17:05:25.626Z,2.00
2023-05-12T17:07:56.712Z,1.80
2023-05-12T17:10:27.901Z,1.70
2023-05-12T17:12:59.082Z,1.70
2023-05-12T17:15:30.500Z,2.00
2023-05-12T17:18:01.687Z,2.00
2023-05-12T17:20:34.461Z,2.50
2023-05-12T17:23:05.786Z,2.10
2023-05-12T17:25:37.716Z,2.20
2023-05-12T17:28:08.866Z,2.50
2023-05-12T17:30:40.017Z,2.20
2023-05-12T17:33:11.429Z,2.10
2023-05-12T17:35:42.776Z,2.10
2023-05-12T17:38:13.993Z,2.10
2023-05-12T17:40:45.009Z,2.60
2023-05-12T17:43:16.143Z,2.70
2023-05-12T17:45:47.209Z,2.60
2023-05-12T17:48:18.746Z,2.50
2023-05-12T17:50:49.961Z,2.30
2023-05-12T17:53:21.606Z,3.50
2023-05-12T17:55:53.010Z,2.40
2023-05-12T17:58:24.768Z,3.20
2023-05-12T18:00:55.858Z,2.90
2023-05-12T18:03:27.077Z,3.00
2023-05-12T18:05:58.719Z,3.70
2023-05-12T18:08:29.869Z,2.70
2023-05-12T18:11:03.650Z,2.80
2023-05-12T18:13:35.122Z,2.00
2023-05-12T18:16:08.994Z,2.00
2023-05-12T18:18:48.845Z,2.20
2023-05-12T18:21:19.933Z,2.10
2023-05-12T18:23:50.940Z,1.80
2023-05-12T18:26:22.033Z,2.40
2023-05-12T18:28:53.100Z,1.90
2023-05-12T18:31:24.249Z,2.10
2023-05-12T18:33:56.237Z,1.60
2023-05-12T18:36:28.346Z,2.10
2023-05-12T18:38:59.569Z,2.50
2023-05-12T18:41:31.483Z,2.50
2023-05-12T18:44:02.472Z,2.00
2023-05-12T18:46:33.597Z,2.20
2023-05-12T18:49:04.641Z,2.20
2023-05-12T18:51:36.552Z,2.10
2023-05-12T18:54:07.792Z,2.30
2023-05-12T18:56:38.950Z,2.70
2023-05-12T18:59:09.948Z,2.70
2023-05-12T19:01:41.361Z,2.00
2023-05-12T19:04:12.733Z,2.20
2023-05-12T19:06:44.644Z,1.80
2023-05-12T19:09:15.841Z,2.00
2023-05-12T19:11:47.271Z,2.20
2023-05-12T19:14:18.372Z,1.90
2023-05-12T19:16:50.152Z,2.20
2023-05-12T19:19:22.073Z,2.50
2023-05-12T19:21:53.424Z,2.60
2023-05-12T19:24:27.133Z,2.80
2023-05-12T19:26:58.748Z,3.10
2023-05-12T19:29:29.908Z,2.20
2023-05-12T19:32:01.111Z,3.80
2023-05-12T19:34:32.662Z,2.60
2023-05-12T19:37:03.675Z,2.70
2023-05-12T19:39:35.337Z,3.30
2023-05-12T19:42:07.322Z,2.30
2023-05-12T19:44:38.332Z,2.80
2023-05-12T19:47:09.576Z,3.00
2023-05-12T19:49:41.146Z,3.00
2023-05-12T19:52:12.357Z,2.90
2023-05-12T19:54:43.497Z,2.50
2023-05-12T19:57:14.628Z,2.40
2023-05-12T19:59:45.868Z,3.00
2023-05-12T20:02:17.922Z,3.00
2023-05-12T20:04:49.340Z,2.40
2023-05-12T20:07:21.041Z,2.80
2023-05-12T20:09:52.008Z,2.40
2023-05-12T20:12:23.367Z,2.40
2023-05-12T20:14:54.587Z,4.20
2023-05-12T20:17:25.775Z,4.30
2023-05-12T20:19:57.147Z,2.50
2023-05-12T20:22:28.490Z,3.00
2023-05-12T20:25:04.263Z,2.40
2023-05-12T20:27:35.869Z,5.60
2023-05-12T20:30:08.812Z,5.30
2023-05-12T20:32:39.974Z,6.70
2023-05-12T20:35:12.037Z,4.00
2023-05-12T20:37:43.130Z,3.50
2023-05-12T20:40:15.624Z,2.60
2023-05-12T20:42:48.140Z,2.10
2023-05-12T20:45:19.891Z,2.40
2023-05-12T20:47:51.388Z,2.60
2023-05-12T20:50:23.788Z,2.40
2023-05-12T20:52:54.874Z,2.70
2023-05-12T20:55:27.082Z,2.30
2023-05-12T20:57:58.199Z,2.10
2023-05-12T21:00:29.172Z,1.90
2023-05-12T21:03:02.820Z,2.30
2023-05-12T21:05:34.137Z,2.20
2023-05-12T21:08:05.816Z,2.10
2023-05-12T21:10:39.357Z,2.40
2023-05-12T21:13:10.670Z,2.10
2023-05-12T21:15:41.683Z,2.30
2023-05-12T21:18:13.399Z,2.20
2023-05-12T21:20:44.501Z,1.80
2023-05-12T21:23:15.626Z,1.80
2023-05-12T21:25:46.657Z,2.00
2023-05-12T21:28:18.249Z,1.90
2023-05-12T21:30:49.253Z,1.90
2023-05-12T21:33:20.359Z,2.00
2023-05-12T21:35:51.415Z,2.10
2023-05-12T21:38:22.894Z,1.80
2023-05-12T21:40:55.001Z,1.90
2023-05-12T21:43:25.954Z,2.30
2023-05-12T21:45:56.904Z,2.00
2023-05-12T21:48:28.048Z,2.30
2023-05-12T21:51:03.558Z,2.20
2023-05-12T21:53:34.530Z,1.80
2023-05-12T21:56:06.334Z,2.50
2023-05-12T21:58:37.419Z,1.80
2023-05-12T22:01:08.726Z,2.10
2023-05-12T22:03:39.974Z,2.30
2023-05-12T22:06:12.043Z,2.80
2023-05-12T22:08:43.548Z,3.20
2023-05-12T22:11:15.035Z,3.10
2023-05-12T22:13:46.347Z,3.20
2023-05-12T22:16:18.576Z,3.00
2023-05-12T22:18:51.266Z,3.40
2023-05-12T22:21:22.515Z,3.40
2023-05-12T22:23:53.802Z,3.20
2023-05-12T22:26:25.116Z,3.20
2023-05-12T22:28:56.288Z,3.00
2023-05-12T22:31:27.493Z,3.10
2023-05-12T22:33:58.676Z,3.20
2023-05-12T22:36:29.602Z,3.80
2023-05-12T22:39:01.481Z,3.70
2023-05-12T22:41:33.163Z,3.20
2023-05-12T22:44:04.498Z,3.40
2023-05-12T22:46:35.934Z,3.90
2023-05-12T22:49:07.106Z,4.20
2023-05-12T22:51:38.332Z,4.20
2023-05-12T22:54:09.430Z,4.50
2023-05-12T22:56:40.418Z,3.90
2023-05-12T22:59:11.671Z,3.40
2023-05-12T23:01:42.787Z,3.70
2023-05-12T23:04:14.083Z,3.60
2023-05-12T23:09:14.859Z,4.20
2023-05-12T23:11:46.680Z,4.30
2023-05-12T23:14:17.725Z,4.30
2023-05-12T23:19:18.956Z,3.40
2023-05-12T23:21:50.003Z,3.60
2023-05-12T23:24:21.711Z,3.40
2023-05-12T23:26:52.897Z,3.90
2023-05-12T23:31:53.861Z,3.30
2023-05-12T23:34:24.995Z,3.60
2023-05-12T23:36:56.281Z,3.70
2023-05-12T23:39:27.412Z,3.60
2023-05-12T23:41:58.653Z,3.90
2023-05-12T23:44:29.843Z,3.70
2023-05-12T23:47:01.168Z,3.60
2023-05-12T23:49:32.180Z,3.50
2023-05-12T23:54:33.962Z,3.10
2023-05-12T23:59:34.912Z,3.30
